Time;durP1;ratioP1;P1;durP2;ratioP2;P2;SDS_P1;SDS_P2;PMS_P1;PMS_P2;Temp;Humidity;BMP_temperature;BMP_pressure;BME280_temperature;BME280_humidity;BME280_pressure;Samples;Min_cycle;Max_cycle;Signal;HPM_P1;HPM_P2
2021/12/09 00:00:44;;;;;;;18.40;7.25;;;;;;;4.82;75.97;100137.06;5036501;28;20040;-58
2021/12/09 00:03:11;;;;;;;21.38;7.60;;;;;;;4.89;75.78;100144.13;5034298;28;20040;-59
2021/12/09 00:05:37;;;;;;;22.85;7.63;;;;;;;4.93;75.58;100147.69;5033809;28;20043;-58
2021/12/09 00:08:04;;;;;;;21.48;7.63;;;;;;;4.83;75.75;100147.44;5026873;28;20037;-59
2021/12/09 00:10:29;;;;;;;20.10;7.72;;;;;;;4.92;75.75;100154.56;5039167;28;20050;-59
2021/12/09 00:12:55;;;;;;;16.75;7.18;;;;;;;4.94;75.43;100146.84;5029743;28;20660;-59
2021/12/09 00:15:21;;;;;;;21.70;8.00;;;;;;;4.91;75.88;100152.81;5037513;28;20454;-61
2021/12/09 00:17:46;;;;;;;26.65;8.25;;;;;;;4.85;75.44;100161.28;5038874;28;20215;-60
2021/12/09 00:20:13;;;;;;;19.85;7.70;;;;;;;4.79;75.22;100161.13;5040506;28;20040;-59
2021/12/09 00:22:38;;;;;;;23.83;8.15;;;;;;;4.75;75.77;100163.59;5035162;28;20044;-60
2021/12/09 00:25:04;;;;;;;20.35;8.02;;;;;;;4.74;75.45;100160.16;5035269;28;20048;-59
2021/12/09 00:27:29;;;;;;;16.65;7.70;;;;;;;4.73;75.69;100160.97;5038718;28;20040;-59
2021/12/09 00:29:55;;;;;;;24.23;8.55;;;;;;;4.68;75.65;100161.69;5041258;28;21202;-59
2021/12/09 00:32:21;;;;;;;17.48;8.27;;;;;;;4.63;75.91;100158.13;5033852;28;20586;-59
2021/12/09 00:34:49;;;;;;;26.67;8.52;;;;;;;4.64;75.84;100150.41;5037475;28;20527;-60
2021/12/09 00:37:23;;;;;;;25.45;8.85;;;;;;;4.65;76.14;100162.47;5040141;28;20450;-59
2021/12/09 00:39:49;;;;;;;25.17;8.65;;;;;;;4.64;76.05;100162.44;5035707;28;20048;-59
2021/12/09 00:42:16;;;;;;;21.65;8.13;;;;;;;4.60;75.63;100161.50;5036459;28;20071;-59
2021/12/09 00:44:44;;;;;;;29.52;8.80;;;;;;;4.60;75.59;100158.91;5032186;28;20396;-58
2021/12/09 00:47:09;;;;;;;26.17;9.13;;;;;;;4.65;75.75;100161.59;5041702;28;20133;-58
2021/12/09 00:49:34;;;;;;;29.33;9.23;;;;;;;4.59;76.05;100154.56;5038037;28;20495;-60
2021/12/09 00:52:00;;;;;;;30.70;9.25;;;;;;;4.56;76.14;100158.81;5036974;28;20577;-60
2021/12/09 00:54:26;;;;;;;25.10;9.30;;;;;;;4.66;75.92;100164.22;5037188;28;20219;-61
2021/12/09 00:56:51;;;;;;;25.67;9.10;;;;;;;4.58;75.88;100165.72;5032682;28;20088;-58
2021/12/09 00:59:17;;;;;;;29.35;9.00;;;;;;;4.60;76.18;100160.63;5038569;28;20048;-59
2021/12/09 01:01:42;;;;;;;22.92;8.95;;;;;;;4.60;75.95;100160.63;5038782;28;20429;-57
2021/12/09 01:04:08;;;;;;;27.38;9.30;;;;;;;4.58;75.95;100155.41;5043427;28;20052;-59
2021/12/09 01:06:33;;;;;;;24.27;8.95;;;;;;;4.56;75.80;100157.09;5034850;28;20287;-60
2021/12/09 01:08:59;;;;;;;21.10;8.23;;;;;;;4.51;76.06;100156.09;5035992;28;20040;-60
2021/12/09 01:11:24;;;;;;;28.63;9.10;;;;;;;4.48;75.91;100161.19;5038143;28;20601;-59
2021/12/09 01:13:50;;;;;;;21.00;7.68;;;;;;;4.52;75.94;100154.38;5033522;28;20424;-59
2021/12/09 01:16:15;;;;;;;29.10;9.05;;;;;;;4.51;75.99;100150.94;5037748;28;20048;-60
2021/12/09 01:18:41;;;;;;;26.67;8.10;;;;;;;4.53;75.68;100156.13;5032042;28;20117;-59
2021/12/09 01:21:08;;;;;;;28.38;7.82;;;;;;;4.57;76.00;100152.81;5037671;28;20044;-59
2021/12/09 01:23:34;;;;;;;23.30;8.18;;;;;;;4.58;76.20;100157.13;5032492;28;20500;-60
2021/12/09 01:26:03;;;;;;;28.70;7.50;;;;;;;4.63;75.96;100159.00;5047632;28;20173;-60
2021/12/09 01:28:35;;;;;;;23.80;7.20;;;;;;;4.59;75.70;100154.56;5038867;28;20572;-60
2021/12/09 01:31:05;;;;;;;21.98;7.82;;;;;;;4.64;75.79;100155.56;5036191;28;20067;-59
2021/12/09 01:33:32;;;;;;;24.33;7.63;;;;;;;4.70;75.79;100147.97;5043851;28;20686;-59
2021/12/09 01:35:57;;;;;;;24.65;7.60;;;;;;;4.66;75.63;100153.91;5043463;28;20482;-60
2021/12/09 01:38:25;;;;;;;17.45;7.32;;;;;;;4.65;75.42;100156.44;5041670;28;20055;-59
2021/12/09 01:40:50;;;;;;;25.27;7.22;;;;;;;4.62;75.48;100153.78;5032654;28;20041;-61
2021/12/09 01:43:16;;;;;;;26.23;7.53;;;;;;;4.66;75.73;100164.22;5042954;28;20341;-59
2021/12/09 01:45:41;;;;;;;21.05;6.53;;;;;;;4.60;75.15;100158.91;5044410;28;20037;-59
2021/12/09 01:48:07;;;;;;;21.58;7.40;;;;;;;4.59;75.74;100164.03;5043694;28;20062;-61
2021/12/09 01:50:39;;;;;;;22.52;7.03;;;;;;;4.54;75.40;100165.63;5043816;28;20049;-58
2021/12/09 01:53:07;;;;;;;26.98;7.78;;;;;;;4.52;75.89;100168.16;5042648;28;20398;-59
2021/12/09 01:55:33;;;;;;;22.67;7.25;;;;;;;4.56;75.85;100166.53;5043105;28;20036;-59
2021/12/09 01:58:00;;;;;;;30.45;7.82;;;;;;;4.52;75.86;100175.03;5043671;28;20459;-59
2021/12/09 02:00:27;;;;;;;24.00;7.60;;;;;;;4.48;75.71;100174.09;5039646;28;20040;-59
2021/12/09 02:02:53;;;;;;;24.25;7.00;;;;;;;4.48;75.53;100176.66;5033652;28;20333;-58
2021/12/09 02:05:18;;;;;;;23.23;6.75;;;;;;;4.47;75.55;100174.91;5044800;28;20041;-59
2021/12/09 02:07:44;;;;;;;20.40;7.32;;;;;;;4.47;75.38;100175.78;5039867;28;20288;-60
2021/12/09 02:10:16;;;;;;;23.50;7.97;;;;;;;4.48;76.48;100176.66;5043318;28;20553;-58
2021/12/09 02:12:41;;;;;;;24.17;7.38;;;;;;;4.50;76.10;100172.44;5036431;28;20044;-59
2021/12/09 02:15:08;;;;;;;18.10;7.03;;;;;;;4.44;75.40;100174.84;5037469;28;20404;-58
2021/12/09 02:17:33;;;;;;;21.85;7.15;;;;;;;4.44;75.25;100167.97;5036751;28;20041;-58
2021/12/09 02:20:00;;;;;;;25.20;7.68;;;;;;;4.39;76.45;100168.69;5041876;28;20044;-59
2021/12/09 02:22:28;;;;;;;22.17;7.40;;;;;;;4.51;75.40;100169.00;5039245;28;20060;-58
2021/12/09 02:24:55;;;;;;;21.80;7.95;;;;;;;4.46;76.04;100176.63;5030486;28;20441;-59
2021/12/09 02:27:22;;;;;;;20.95;7.00;;;;;;;4.52;75.65;100173.31;5042884;28;20051;-59
2021/12/09 02:29:48;;;;;;;20.08;7.13;;;;;;;4.49;75.98;100170.66;5039606;28;20557;-59
2021/12/09 02:32:14;;;;;;;23.75;7.60;;;;;;;4.48;75.76;100167.22;5038046;28;20408;-58
2021/12/09 02:34:39;;;;;;;21.55;6.97;;;;;;;4.50;74.92;100177.59;5035454;28;20187;-59
2021/12/09 02:37:05;;;;;;;20.65;7.18;;;;;;;4.59;74.66;100170.06;5036046;28;20060;-59
2021/12/09 02:39:30;;;;;;;19.20;7.00;;;;;;;4.47;75.44;100173.19;5044081;28;20133;-58
2021/12/09 02:41:56;;;;;;;27.85;7.35;;;;;;;4.41;75.25;100167.00;5039343;28;20379;-57
2021/12/09 02:44:22;;;;;;;21.80;6.97;;;;;;;4.40;75.38;100173.88;5043036;28;21256;-58
2021/12/09 02:46:50;;;;;;;25.67;7.70;;;;;;;4.40;75.59;100163.53;5037354;28;20060;-59
2021/12/09 02:49:18;;;;;;;25.77;7.45;;;;;;;4.37;75.79;100176.38;5044291;28;20056;-60
2021/12/09 02:51:44;;;;;;;21.15;6.90;;;;;;;4.38;75.51;100172.09;5036983;28;20175;-60
2021/12/09 02:54:11;;;;;;;20.02;7.85;;;;;;;4.40;75.85;100168.72;5039156;28;20063;-60
2021/12/09 02:56:37;;;;;;;23.52;7.53;;;;;;;4.43;75.73;100163.66;5033382;28;20048;-61
2021/12/09 02:59:04;;;;;;;19.98;7.57;;;;;;;4.42;76.03;100169.63;5041205;28;20228;-59
2021/12/09 03:01:34;;;;;;;26.08;7.88;;;;;;;4.41;75.21;100167.00;5039323;28;20045;-59
2021/12/09 03:04:01;;;;;;;26.67;8.32;;;;;;;4.35;76.22;100172.00;5042589;28;20160;-59
2021/12/09 03:06:36;;;;;;;21.17;7.45;;;;;;;4.37;76.15;100162.59;5038403;28;20041;-59
2021/12/09 03:09:10;;;;;;;24.20;7.93;;;;;;;4.38;75.97;100162.66;5038227;28;20411;-57
2021/12/09 03:11:36;;;;;;;25.30;7.90;;;;;;;4.37;76.24;100167.75;5041183;28;20044;-58
2021/12/09 03:14:03;;;;;;;22.58;8.10;;;;;;;4.45;75.48;100171.44;5043550;28;20046;-59
2021/12/09 03:16:29;;;;;;;19.50;7.40;;;;;;;4.38;75.87;100172.97;5043750;28;20118;-58
2021/12/09 03:19:05;;;;;;;26.90;7.68;;;;;;;4.36;75.90;100166.00;5035972;28;20281;-57
2021/12/09 03:21:42;;;;;;;23.73;8.45;;;;;;;4.38;75.71;100174.69;5040000;28;20036;-59
2021/12/09 03:24:10;;;;;;;25.25;8.35;;;;;;;4.38;75.91;100169.53;5042018;28;20148;-60
2021/12/09 03:26:56;;;;;;;22.25;8.43;;;;;;;4.32;76.07;100170.22;5032947;28;20040;-58
2021/12/09 03:29:22;;;;;;;31.45;8.52;;;;;;;4.35;75.87;100169.41;5038795;28;20129;-58
2021/12/09 03:31:50;;;;;;;22.45;8.35;;;;;;;4.41;75.92;100169.59;5039607;28;20047;-60
2021/12/09 03:34:17;;;;;;;21.13;7.65;;;;;;;4.38;75.98;100174.69;5039211;28;20051;-57
2021/12/09 03:36:42;;;;;;;26.13;8.73;;;;;;;4.39;75.47;100176.44;5035706;28;20850;-58
2021/12/09 03:39:13;;;;;;;24.60;8.35;;;;;;;4.36;76.29;100171.19;5040354;28;20048;-59
2021/12/09 03:41:38;;;;;;;25.40;8.82;;;;;;;4.34;76.15;100178.00;5039601;28;21147;-59
2021/12/09 03:44:04;;;;;;;27.80;8.50;;;;;;;4.33;75.57;100181.44;5041492;28;20106;-58
2021/12/09 03:46:30;;;;;;;27.25;8.43;;;;;;;4.32;76.39;100177.09;5039424;28;20314;-58
2021/12/09 03:48:55;;;;;;;24.77;8.02;;;;;;;4.35;75.86;100180.63;5035396;28;20048;-59
2021/12/09 03:51:20;;;;;;;26.98;8.50;;;;;;;4.27;76.53;100181.25;5035307;28;20396;-58
2021/12/09 03:53:46;;;;;;;31.88;8.63;;;;;;;4.33;76.52;100179.69;5038105;28;20410;-59
2021/12/09 03:56:11;;;;;;;24.58;8.02;;;;;;;4.41;75.58;100177.31;5037000;28;20716;-58
2021/12/09 03:58:37;;;;;;;24.40;7.88;;;;;;;4.36;75.77;100189.25;5036691;28;20036;-59
2021/12/09 04:01:03;;;;;;;23.77;8.27;;;;;;;4.36;75.71;100184.94;5028868;28;20105;-59
2021/12/09 04:03:28;;;;;;;27.42;8.43;;;;;;;4.32;75.92;100190.88;5039326;28;20071;-57
2021/12/09 04:05:53;;;;;;;28.50;8.50;;;;;;;4.33;75.69;100194.34;5041789;28;20122;-58
2021/12/09 04:08:21;;;;;;;28.75;7.95;;;;;;;4.30;75.99;100191.66;5044158;28;20040;-59
2021/12/09 04:10:46;;;;;;;23.00;7.65;;;;;;;4.32;75.76;100185.72;5034206;28;20040;-59
2021/12/09 04:13:11;;;;;;;24.20;7.95;;;;;;;4.30;76.70;100199.38;5036260;28;20376;-60
2021/12/09 04:15:37;;;;;;;23.05;7.40;;;;;;;4.35;75.68;100192.66;5038733;28;20107;-58
2021/12/09 04:18:02;;;;;;;23.52;7.10;;;;;;;4.30;76.01;100192.53;5035238;28;20411;-58
2021/12/09 04:20:28;;;;;;;22.65;6.70;;;;;;;4.30;75.72;100194.22;5037529;28;20072;-60
2021/12/09 04:22:53;;;;;;;28.67;7.70;;;;;;;4.21;75.55;100189.69;5031941;28;20169;-58
2021/12/09 04:25:21;;;;;;;25.50;7.32;;;;;;;4.27;76.33;100189.00;5042706;28;20044;-60
2021/12/09 04:27:47;;;;;;;20.65;6.43;;;;;;;4.30;76.11;100181.34;5039790;28;20040;-59
2021/12/09 04:30:13;;;;;;;23.42;6.68;;;;;;;4.28;76.31;100190.72;5035361;28;20041;-60
2021/12/09 04:32:39;;;;;;;25.27;6.65;;;;;;;4.23;76.06;100184.56;5028532;28;20055;-60
2021/12/09 04:35:05;;;;;;;27.50;7.22;;;;;;;4.24;76.04;100188.91;5042645;28;20048;-58
2021/12/09 04:37:31;;;;;;;25.73;6.25;;;;;;;4.23;75.99;100185.44;5036783;28;20087;-60
2021/12/09 04:39:56;;;;;;;28.05;6.47;;;;;;;4.23;75.67;100188.03;5043014;28;20041;-60
2021/12/09 04:42:22;;;;;;;23.88;6.07;;;;;;;4.30;75.72;100201.97;5034812;28;20060;-59
2021/12/09 04:44:47;;;;;;;21.98;6.05;;;;;;;4.25;75.69;100203.56;5031188;28;20127;-58
2021/12/09 04:47:12;;;;;;;19.98;6.03;;;;;;;4.20;76.10;100203.44;5037606;28;20040;-58
2021/12/09 04:49:38;;;;;;;20.15;5.63;;;;;;;4.20;75.80;100202.56;5040078;28;20032;-59
2021/12/09 04:52:07;;;;;;;23.70;6.00;;;;;;;4.22;76.10;100213.78;5035905;28;20045;-61
2021/12/09 04:54:36;;;;;;;24.42;5.95;;;;;;;4.24;76.25;100210.41;5039601;28;20075;-59
2021/12/09 04:57:06;;;;;;;17.45;5.30;;;;;;;4.24;75.64;100213.00;5039274;28;20060;-59
2021/12/09 04:59:32;;;;;;;23.65;5.65;;;;;;;4.30;76.08;100214.88;5045461;28;20028;-59
2021/12/09 05:01:57;;;;;;;21.88;5.43;;;;;;;4.25;76.16;100224.19;5042610;28;20051;-58
2021/12/09 05:04:23;;;;;;;24.38;5.75;;;;;;;4.25;76.29;100222.50;5047167;28;20070;-58
2021/12/09 05:06:48;;;;;;;25.60;5.80;;;;;;;4.32;76.10;100218.38;5031401;28;20057;-57
2021/12/09 05:09:17;;;;;;;20.67;5.22;;;;;;;4.32;75.89;100221.84;5045059;28;20113;-59
2021/12/09 05:14:09;;;;;;;20.83;5.40;;;;;;;4.35;75.85;100221.91;5041022;28;20616;-61
2021/12/09 05:16:34;;;;;;;18.30;4.90;;;;;;;4.36;76.41;100231.41;5042448;28;21500;-59
2021/12/09 05:19:00;;;;;;;20.50;4.78;;;;;;;4.41;76.46;100226.34;5034069;28;20059;-58
2021/12/09 05:21:36;;;;;;;19.63;5.07;;;;;;;4.38;76.06;100234.91;5042334;28;20950;-61
2021/12/09 05:24:03;;;;;;;19.02;5.38;;;;;;;4.35;75.54;100229.66;5043407;28;20340;-60
2021/12/09 05:26:34;;;;;;;22.65;5.43;;;;;;;4.36;76.33;100227.94;5035713;28;20040;-57
2021/12/09 05:29:00;;;;;;;13.45;4.55;;;;;;;4.37;75.70;100230.56;5039457;28;20052;-60
2021/12/09 05:34:11;;;;;;;22.10;5.50;;;;;;;4.43;76.36;100220.41;5042112;28;20063;-59
2021/12/09 05:36:37;;;;;;;20.95;5.18;;;;;;;4.45;76.15;100223.91;5039596;28;20438;-58
2021/12/09 05:39:04;;;;;;;22.85;5.05;;;;;;;4.42;75.78;100228.13;5037210;28;20760;-59
2021/12/09 05:41:31;;;;;;;20.65;5.15;;;;;;;4.39;75.61;100228.03;5039618;28;20049;-59
2021/12/09 05:43:56;;;;;;;26.00;5.35;;;;;;;4.30;76.04;100223.50;5044559;28;20426;-59
2021/12/09 05:46:22;;;;;;;15.38;4.75;;;;;;;4.40;75.68;100229.75;5043902;28;20066;-58
2021/12/09 05:48:49;;;;;;;22.52;5.25;;;;;;;4.33;75.89;100233.88;5035960;28;20048;-60
2021/12/09 05:51:14;;;;;;;25.38;5.57;;;;;;;4.31;75.49;100224.38;5045076;28;20547;-59
2021/12/09 05:53:40;;;;;;;22.33;5.22;;;;;;;4.30;75.85;100230.34;5043124;28;20052;-60
2021/12/09 05:56:05;;;;;;;20.08;5.15;;;;;;;4.35;75.39;100236.50;5038234;28;20045;-59
2021/12/09 05:58:31;;;;;;;20.20;5.25;;;;;;;4.36;76.04;100239.16;5042410;28;20115;-58
2021/12/09 06:00:57;;;;;;;19.45;4.45;;;;;;;4.34;75.78;100239.91;5033595;28;20028;-59
2021/12/09 06:03:22;;;;;;;20.15;4.97;;;;;;;4.42;76.01;100246.19;5044479;28;20050;-59
2021/12/09 06:05:49;;;;;;;19.65;5.07;;;;;;;4.43;75.65;100243.66;5044249;28;20091;-60
2021/12/09 06:08:14;;;;;;;21.05;5.43;;;;;;;4.41;76.40;100250.47;5043583;28;20056;-59
2021/12/09 06:10:40;;;;;;;21.83;5.05;;;;;;;4.47;76.52;100239.44;5035695;28;20506;-60
2021/12/09 06:13:05;;;;;;;24.80;5.70;;;;;;;4.54;75.97;100236.19;5035997;28;20122;-60
2021/12/09 06:15:31;;;;;;;19.63;5.35;;;;;;;4.62;76.29;100239.00;5043499;28;20033;-60
2021/12/09 06:17:57;;;;;;;17.67;4.53;;;;;;;4.70;76.56;100246.09;5044056;28;20144;-58
2021/12/09 06:20:24;;;;;;;19.42;5.60;;;;;;;4.62;75.93;100245.03;5037132;28;20109;-60
2021/12/09 06:22:49;;;;;;;26.20;5.13;;;;;;;4.55;75.90;100248.28;5030057;28;20190;-58
2021/12/09 06:25:18;;;;;;;20.73;5.65;;;;;;;4.52;76.01;100249.88;5044929;28;20059;-59
2021/12/09 06:27:48;;;;;;;19.02;5.47;;;;;;;4.44;75.76;100257.44;5041181;28;20052;-59
2021/12/09 06:30:14;;;;;;;18.00;5.15;;;;;;;4.42;75.83;100248.75;5041898;28;20376;-59
2021/12/09 06:32:41;;;;;;;22.52;5.45;;;;;;;4.40;75.80;100251.28;5028985;28;20040;-60
2021/12/09 06:35:07;;;;;;;21.45;5.50;;;;;;;4.49;75.24;100248.09;5044261;28;20478;-59
2021/12/09 06:37:32;;;;;;;20.48;5.40;;;;;;;4.41;75.63;100245.31;5040828;28;20279;-59
2021/12/09 06:39:57;;;;;;;15.77;5.00;;;;;;;4.45;75.40;100247.13;5040884;28;20104;-60
2021/12/09 06:42:23;;;;;;;25.17;5.60;;;;;;;4.44;76.28;100241.94;5036044;28;20673;-61
2021/12/09 06:44:48;;;;;;;20.45;5.50;;;;;;;4.40;76.28;100245.25;5036621;28;20097;-57
2021/12/09 06:47:13;;;;;;;17.45;5.30;;;;;;;4.40;76.17;100247.84;5043343;28;20747;-59
2021/12/09 06:49:39;;;;;;;22.98;6.05;;;;;;;4.32;76.73;100239.91;5042470;28;20337;-60
2021/12/09 06:52:04;;;;;;;22.33;5.82;;;;;;;4.37;76.49;100240.03;5040907;28;20483;-59
2021/12/09 06:54:32;;;;;;;25.55;5.93;;;;;;;4.37;76.62;100243.47;5040300;28;20118;-59
2021/12/09 06:56:58;;;;;;;20.13;5.97;;;;;;;4.45;76.36;100248.88;5031551;28;20619;-59
2021/12/09 06:59:24;;;;;;;26.52;6.22;;;;;;;4.51;76.32;100251.63;5039024;28;20050;-58
2021/12/09 07:01:49;;;;;;;27.83;6.25;;;;;;;4.52;76.59;100258.50;5041193;28;20051;-62
2021/12/09 07:04:14;;;;;;;27.30;6.13;;;;;;;4.59;76.28;100249.22;5041476;28;20049;-59
2021/12/09 07:06:40;;;;;;;20.13;6.35;;;;;;;4.64;77.01;100255.38;5042124;28;20502;-61
2021/12/09 07:09:05;;;;;;;21.92;6.53;;;;;;;4.69;77.10;100257.28;5039676;28;20071;-57
2021/12/09 07:11:32;;;;;;;22.73;5.75;;;;;;;4.76;76.79;100254.00;5038187;28;20734;-59
2021/12/09 07:13:57;;;;;;;21.10;5.93;;;;;;;4.75;76.68;100261.72;5038543;28;20359;-59
2021/12/09 07:16:23;;;;;;;21.40;6.43;;;;;;;4.78;76.07;100260.09;5038831;28;20036;-59
2021/12/09 07:18:49;;;;;;;22.20;5.90;;;;;;;4.77;76.50;100263.50;5033571;28;20128;-59
2021/12/09 07:21:18;;;;;;;20.10;6.35;;;;;;;4.78;76.29;100266.97;5039474;28;20727;-59
2021/12/09 07:23:44;;;;;;;20.83;6.00;;;;;;;4.85;76.66;100267.16;5041133;28;20421;-59
2021/12/09 07:26:09;;;;;;;24.10;6.47;;;;;;;4.90;76.62;100263.00;5038857;28;20041;-59
2021/12/09 07:28:35;;;;;;;21.40;6.70;;;;;;;4.98;76.82;100267.50;5036941;28;20148;-58
2021/12/09 07:31:01;;;;;;;20.42;6.30;;;;;;;5.02;76.62;100269.31;5034412;28;20083;-58
2021/12/09 07:33:27;;;;;;;20.80;6.43;;;;;;;5.04;76.01;100270.22;5039486;28;20176;-57
2021/12/09 07:35:52;;;;;;;23.05;6.00;;;;;;;5.06;76.40;100276.31;5044504;28;20071;-59
2021/12/09 07:38:18;;;;;;;23.48;6.72;;;;;;;5.06;76.63;100282.34;5040006;28;20488;-59
2021/12/09 07:40:43;;;;;;;25.80;6.88;;;;;;;5.09;76.70;100271.22;5029495;28;20143;-59
2021/12/09 07:43:08;;;;;;;23.05;6.55;;;;;;;5.18;76.54;100269.75;5027198;28;20521;-60
2021/12/09 07:45:34;;;;;;;24.88;6.43;;;;;;;5.25;76.64;100273.34;5040277;28;20106;-58
2021/12/09 07:47:59;;;;;;;21.55;6.85;;;;;;;5.31;76.19;100274.38;5041759;28;20448;-57
2021/12/09 07:50:28;;;;;;;23.92;6.93;;;;;;;5.38;76.26;100284.84;5037864;28;20686;-58
2021/12/09 07:52:54;;;;;;;22.92;7.03;;;;;;;5.45;76.29;100281.59;5029668;28;20120;-57
2021/12/09 07:55:21;;;;;;;23.23;7.40;;;;;;;5.51;76.21;100284.31;5035881;28;20329;-59
2021/12/09 07:57:47;;;;;;;23.25;6.80;;;;;;;5.56;76.33;100283.59;5036276;28;20032;-59
2021/12/09 08:00:15;;;;;;;19.88;7.03;;;;;;;5.58;75.97;100289.69;5033112;28;20049;-59
2021/12/09 08:02:42;;;;;;;20.75;6.68;;;;;;;5.61;76.23;100289.75;5030442;28;20479;-60
2021/12/09 08:05:10;;;;;;;23.05;7.07;;;;;;;5.68;76.04;100295.94;5040896;28;20052;-60
2021/12/09 08:07:35;;;;;;;22.42;7.13;;;;;;;5.76;76.04;100301.31;5036169;28;20037;-59
2021/12/09 08:10:01;;;;;;;26.02;7.18;;;;;;;5.74;75.80;100306.44;5034966;28;20068;-58
2021/12/09 08:12:26;;;;;;;22.73;7.05;;;;;;;5.82;75.90;100311.78;5037341;28;20041;-58
2021/12/09 08:14:51;;;;;;;19.92;7.50;;;;;;;5.83;75.70;100309.25;5032140;28;20244;-59
2021/12/09 08:20:05;;;;;;;22.25;7.20;;;;;;;6.02;75.63;100310.56;5039167;28;20178;-59
2021/12/09 08:22:31;;;;;;;23.38;7.47;;;;;;;6.04;75.33;100312.34;5040172;28;20138;-60
2021/12/09 08:24:56;;;;;;;21.73;6.90;;;;;;;6.06;75.24;100304.63;5041622;28;21152;-59
2021/12/09 08:27:22;;;;;;;28.27;8.07;;;;;;;6.08;75.21;100303.81;5038661;28;20105;-59
2021/12/09 08:29:48;;;;;;;25.23;7.63;;;;;;;6.24;75.07;100305.03;5033643;28;21347;-59
2021/12/09 08:32:13;;;;;;;23.25;7.70;;;;;;;6.34;75.17;100301.78;5035783;28;20040;-59
2021/12/09 08:34:39;;;;;;;22.70;7.43;;;;;;;6.30;74.59;100305.16;5032342;28;20538;-59
2021/12/09 08:37:05;;;;;;;20.55;7.50;;;;;;;6.27;74.45;100307.69;5037542;28;20567;-59
2021/12/09 08:39:30;;;;;;;20.48;7.38;;;;;;;6.34;74.31;100314.72;5034341;28;20155;-61
2021/12/09 08:42:05;;;;;;;19.13;7.28;;;;;;;6.31;74.58;100308.63;5037707;28;20211;-60
2021/12/09 08:44:33;;;;;;;20.50;8.10;;;;;;;6.30;74.52;100312.91;5038487;28;20048;-59
2021/12/09 08:46:59;;;;;;;21.33;7.65;;;;;;;6.27;74.32;100310.28;5033116;28;20133;-59
2021/12/09 08:49:24;;;;;;;20.00;7.95;;;;;;;6.24;74.60;100306.72;5036495;28;20136;-58
2021/12/09 08:51:50;;;;;;;22.33;7.45;;;;;;;6.17;74.63;100312.63;5039915;28;20052;-61
2021/12/09 08:54:15;;;;;;;18.60;7.20;;;;;;;6.28;74.58;100313.75;5036308;28;20128;-59
2021/12/09 08:56:42;;;;;;;21.80;8.38;;;;;;;6.35;74.58;100319.06;5033750;28;20039;-59
2021/12/09 08:59:08;;;;;;;22.48;7.93;;;;;;;6.45;74.42;100314.97;5036349;28;20438;-59
2021/12/09 09:01:33;;;;;;;18.88;7.78;;;;;;;6.59;74.28;100318.69;5037142;28;20099;-58
2021/12/09 09:04:00;;;;;;;26.45;8.45;;;;;;;6.65;74.47;100325.75;5039975;28;20107;-59
2021/12/09 09:06:25;;;;;;;26.35;8.27;;;;;;;6.71;74.11;100323.28;5036541;28;20076;-60
2021/12/09 09:08:56;;;;;;;20.10;7.68;;;;;;;6.77;73.94;100323.41;5033047;28;20147;-59
2021/12/09 09:11:21;;;;;;;26.75;8.25;;;;;;;6.84;73.97;100320.94;5038478;28;20507;-60
2021/12/09 09:13:47;;;;;;;19.40;7.90;;;;;;;6.84;73.63;100320.06;5037660;28;20091;-59
2021/12/09 09:16:12;;;;;;;21.80;8.35;;;;;;;6.89;73.88;100321.06;5035788;28;20293;-58
2021/12/09 09:18:38;;;;;;;20.02;7.93;;;;;;;6.92;73.69;100326.28;5035764;28;20028;-58
2021/12/09 09:21:03;;;;;;;25.23;8.60;;;;;;;6.93;74.02;100325.44;5030608;28;20072;-57
2021/12/09 09:23:29;;;;;;;23.23;8.90;;;;;;;7.01;73.92;100329.06;5038061;28;20041;-60
2021/12/09 09:25:54;;;;;;;18.83;8.55;;;;;;;6.90;73.38;100317.59;5038205;28;20577;-59
2021/12/09 09:28:20;;;;;;;22.45;8.93;;;;;;;6.84;73.67;100325.25;5039521;28;20036;-59
2021/12/09 09:30:53;;;;;;;23.65;8.70;;;;;;;6.80;73.48;100315.69;5026676;28;20116;-58
2021/12/09 09:33:18;;;;;;;22.95;8.95;;;;;;;6.79;73.65;100327.75;5037227;28;20446;-59
2021/12/09 09:35:44;;;;;;;23.85;9.02;;;;;;;6.86;73.51;100334.81;5038377;28;20048;-57
2021/12/09 09:38:10;;;;;;;24.25;9.70;;;;;;;6.96;73.90;100327.19;5035144;28;20032;-59
2021/12/09 09:40:49;;;;;;;29.48;9.75;;;;;;;7.08;74.33;100330.03;5038241;28;20050;-58
2021/12/09 09:43:42;;;;;;;24.35;9.88;;;;;;;7.00;74.01;100341.97;5037731;28;20045;-59
2021/12/09 09:46:07;;;;;;;27.08;10.57;;;;;;;7.09;73.91;100336.97;5052615;28;20045;-60
2021/12/09 09:48:35;;;;;;;31.00;10.90;;;;;;;7.18;73.56;100331.97;5038978;28;20628;-59
2021/12/09 09:51:02;;;;;;;21.73;10.27;;;;;;;7.27;72.97;100326.91;5034730;28;20044;-60
2021/12/09 09:53:27;;;;;;;21.67;10.85;;;;;;;7.33;73.13;100327.03;5031883;28;21189;-58
2021/12/09 09:55:53;;;;;;;25.55;10.60;;;;;;;7.44;73.12;100328.09;5041517;28;20040;-58
2021/12/09 09:58:19;;;;;;;22.60;10.60;;;;;;;7.44;72.85;100328.09;5043460;28;20047;-58
2021/12/09 10:00:44;;;;;;;24.33;10.65;;;;;;;7.31;73.04;100334.81;5032782;28;20459;-59
2021/12/09 10:03:16;;;;;;;30.20;10.52;;;;;;;7.44;72.63;100332.44;5041354;28;20098;-59
2021/12/09 10:05:52;;;;;;;24.60;10.68;;;;;;;7.42;72.66;100334.09;5038308;28;20048;-59
2021/12/09 10:08:17;;;;;;;24.33;10.80;;;;;;;7.48;72.37;100335.09;5044096;28;20041;-58
2021/12/09 10:10:45;;;;;;;24.90;11.07;;;;;;;7.47;72.08;100335.94;5033998;28;20434;-59
2021/12/09 10:13:13;;;;;;;29.10;11.80;;;;;;;7.42;72.57;100336.69;5039957;28;20447;-59
2021/12/09 10:15:40;;;;;;;26.27;11.80;;;;;;;7.48;72.51;100339.41;5037775;28;20139;-58
2021/12/09 10:18:06;;;;;;;27.42;11.55;;;;;;;7.37;72.65;100349.59;5042203;28;20457;-60
2021/12/09 10:20:42;;;;;;;29.48;11.63;;;;;;;7.40;73.21;100340.97;5038248;28;20070;-59
2021/12/09 10:23:28;;;;;;;26.60;12.10;;;;;;;7.40;72.93;100347.03;5037475;28;20057;-60
2021/12/09 10:26:29;;;;;;;29.95;11.90;;;;;;;7.57;73.16;100339.53;5035279;28;20029;-60
2021/12/09 10:29:09;;;;;;;29.25;12.27;;;;;;;7.65;73.12;100344.03;4992417;28;20038;-59
2021/12/09 10:31:41;;;;;;;30.58;11.95;;;;;;;7.70;73.32;100337.19;5029797;28;20063;-59
2021/12/09 10:37:01;;;;;;;29.38;12.30;;;;;;;7.79;73.59;100307.94;5027357;28;20503;-60
2021/12/09 10:39:29;;;;;;;26.88;12.98;;;;;;;8.03;72.95;100323.00;5042602;28;20064;-59
2021/12/09 10:41:56;;;;;;;27.40;12.55;;;;;;;8.04;72.48;100323.03;5037637;28;20736;-59
2021/12/09 10:44:34;;;;;;;32.58;13.00;;;;;;;8.08;72.73;100321.34;5041544;28;20479;-60
2021/12/09 10:47:20;;;;;;;28.33;12.43;;;;;;;8.19;72.85;100311.97;5034710;28;20048;-59
2021/12/09 10:49:52;;;;;;;29.85;12.68;;;;;;;8.37;72.57;100317.44;5043026;28;20033;-59
2021/12/09 10:52:35;;;;;;;27.27;12.50;;;;;;;8.44;71.63;100313.19;5036856;28;20119;-59
2021/12/09 10:55:06;;;;;;;29.45;12.65;;;;;;;8.50;71.78;100306.38;5036694;28;20691;-59
2021/12/09 10:57:32;;;;;;;26.88;12.10;;;;;;;8.51;71.38;100315.91;5041176;27;20044;-60
2021/12/09 11:00:14;;;;;;;30.75;12.85;;;;;;;8.51;71.93;100307.25;5037989;28;20078;-60
2021/12/09 11:03:16;;;;;;;34.03;13.07;;;;;;;8.54;71.50;100307.25;5032619;28;20147;-60
2021/12/09 11:05:52;;;;;;;33.13;12.98;;;;;;;8.45;71.57;100301.97;5037685;28;20321;-59
2021/12/09 11:08:24;;;;;;;29.27;12.57;;;;;;;8.45;71.23;100304.56;5042259;28;20139;-59
2021/12/09 11:10:56;;;;;;;31.25;13.35;;;;;;;8.50;70.90;100305.50;5033007;28;20508;-59
2021/12/09 11:13:22;;;;;;;28.25;12.73;;;;;;;8.61;71.32;100310.81;5038731;28;20117;-59
2021/12/09 11:15:49;;;;;;;27.95;12.85;;;;;;;8.46;71.25;100307.19;5040461;28;20495;-59
2021/12/09 11:18:31;;;;;;;29.10;13.25;;;;;;;8.52;70.59;100314.19;5035302;28;20056;-61
2021/12/09 11:20:57;;;;;;;31.42;13.43;;;;;;;8.47;70.58;100305.47;5033350;28;20619;-60
2021/12/09 11:23:29;;;;;;;29.58;13.65;;;;;;;8.42;71.05;100317.50;5041265;28;20494;-59
2021/12/09 11:25:57;;;;;;;29.95;13.57;;;;;;;8.21;71.47;100306.81;5056520;28;20182;-61
2021/12/09 11:28:25;;;;;;;28.42;13.80;;;;;;;8.21;71.46;100306.81;5041046;28;20059;-59
2021/12/09 11:31:16;;;;;;;29.30;14.38;;;;;;;8.09;72.07;100302.31;5034715;28;20505;-59
2021/12/09 11:33:45;;;;;;;33.70;14.65;;;;;;;8.13;72.54;100297.19;5041007;28;20408;-59
2021/12/09 11:36:16;;;;;;;32.70;15.40;;;;;;;8.04;72.69;100301.38;5039149;28;21006;-59